Time;durP1;ratioP1;P1;durP2;ratioP2;P2;SDS_P1;SDS_P2;PMS_P1;PMS_P2;Temp;Humidity;BMP_temperature;BMP_pressure;BME280_temperature;BME280_humidity;BME280_pressure;Samples;Min_cycle;Max_cycle;Signal;HPM_P1;HPM_P2
2021/04/26 00:02:14;;;;;;;5.28;2.02;;;;;;;-0.20;62.49;96993.98;1745701;81;21127;-84
2021/04/26 00:04:41;;;;;;;3.87;1.67;;;;;;;-0.36;62.67;96997.79;1733864;83;21178;-84
2021/04/26 00:07:08;;;;;;;4.30;1.87;;;;;;;-0.40;62.94;96999.20;1745237;81;21274;-84
2021/04/26 00:09:35;;;;;;;3.05;1.72;;;;;;;-0.43;63.37;96993.86;1729241;81;21141;-84
2021/04/26 00:12:03;;;;;;;4.90;1.90;;;;;;;-0.43;63.21;97002.17;1742732;81;21126;-84
2021/04/26 00:14:30;;;;;;;4.60;2.17;;;;;;;-0.41;63.37;97000.20;1736396;81;21481;-84
2021/04/26 00:16:57;;;;;;;3.42;1.85;;;;;;;-0.45;63.57;96997.67;1741252;81;21501;-84
2021/04/26 00:19:24;;;;;;;2.98;1.90;;;;;;;-0.49;63.51;97004.28;1743714;81;21535;-84
2021/04/26 00:21:51;;;;;;;2.87;1.60;;;;;;;-0.55;63.97;96998.58;1733875;83;21518;-85
2021/04/26 00:24:18;;;;;;;3.42;1.90;;;;;;;-0.63;64.25;97000.36;1741869;81;21640;-84
2021/04/26 00:26:45;;;;;;;3.22;1.90;;;;;;;-0.67;64.30;97000.45;1718459;81;21535;-84
2021/04/26 00:29:12;;;;;;;4.87;2.40;;;;;;;-0.70;64.20;97000.05;1726122;81;21507;-84
2021/04/26 00:31:39;;;;;;;3.58;2.00;;;;;;;-0.69;64.08;96993.84;1735173;81;21160;-84
2021/04/26 00:34:06;;;;;;;6.20;2.60;;;;;;;-0.59;63.34;96991.64;1715849;83;21174;-84
2021/04/26 00:36:32;;;;;;;5.22;2.10;;;;;;;-0.37;62.83;96995.69;1729337;81;21132;-84
2021/04/26 00:38:59;;;;;;;4.90;1.98;;;;;;;-0.35;62.50;97002.00;1753405;81;21135;-84
2021/04/26 00:41:27;;;;;;;3.20;1.45;;;;;;;-0.56;62.53;97002.16;1726993;81;21174;-84
2021/04/26 00:43:54;;;;;;;3.10;1.67;;;;;;;-0.83;63.09;96998.72;1733850;83;21511;-84
2021/04/26 00:46:21;;;;;;;3.40;1.72;;;;;;;-1.01;63.67;97008.35;1734779;81;21155;-84
2021/04/26 00:48:48;;;;;;;2.87;1.72;;;;;;;-0.98;63.98;97007.48;1732202;81;21191;-84
2021/04/26 00:51:15;;;;;;;3.02;1.40;;;;;;;-0.87;63.86;97003.49;1721653;81;21158;-84
2021/04/26 00:53:43;;;;;;;3.22;1.67;;;;;;;-0.82;64.29;96997.72;1659433;84;21132;-84
2021/04/26 00:56:10;;;;;;;4.03;1.42;;;;;;;-0.78;64.24;97000.22;1674657;86;21294;-84
2021/04/26 00:58:37;;;;;;;3.50;1.85;;;;;;;-0.72;64.58;96995.52;1664447;86;21199;-84
2021/04/26 01:01:04;;;;;;;3.55;1.50;;;;;;;-0.74;64.89;97000.92;1674382;84;21160;-84
2021/04/26 01:03:31;;;;;;;4.87;2.05;;;;;;;-0.81;64.90;97000.13;1667538;85;21169;-84
2021/04/26 01:05:59;;;;;;;3.20;1.80;;;;;;;-0.83;64.74;97003.42;1674697;85;21270;-84
2021/04/26 01:08:26;;;;;;;4.80;1.87;;;;;;;-0.82;64.39;96999.83;1668560;86;21568;-85
2021/04/26 01:10:54;;;;;;;2.20;1.80;;;;;;;-0.78;64.48;97006.73;1671164;86;21279;-85
2021/04/26 01:14:02;;;;;;;4.15;2.00;;;;;;;-0.79;64.28;96996.82;1651844;86;21148;-85
2021/04/26 01:16:40;;;;;;;3.83;2.10;;;;;;;-0.73;63.78;97008.23;1647632;86;21131;-84
2021/04/26 01:20:03;;;;;;;5.65;2.08;;;;;;;-0.63;63.57;96999.55;1660501;85;21230;-84
2021/04/26 01:23:13;;;;;;;5.80;2.12;;;;;;;-0.58;63.36;96997.65;1664353;84;21153;-84
2021/04/26 01:25:42;;;;;;;6.30;2.47;;;;;;;-0.55;62.89;96997.28;1656844;84;21526;-84
2021/04/26 01:28:40;;;;;;;6.67;2.70;;;;;;;-0.54;62.61;96994.47;1652486;85;21185;-84
2021/04/26 01:31:18;;;;;;;5.15;2.83;;;;;;;-0.51;62.45;96995.88;1662500;84;21512;-84
2021/04/26 01:33:53;;;;;;;5.92;2.25;;;;;;;-0.45;62.21;96993.77;1664261;86;21397;-84
2021/04/26 01:36:24;;;;;;;3.77;1.95;;;;;;;-0.45;62.57;96993.77;1669347;84;21544;-84
2021/04/26 01:38:55;;;;;;;7.90;2.42;;;;;;;-0.53;62.60;96996.58;1658444;86;21184;-84
2021/04/26 01:41:27;;;;;;;4.10;2.05;;;;;;;-0.61;62.75;96995.75;1667139;84;21123;-85
2021/04/26 01:43:56;;;;;;;5.80;2.67;;;;;;;-0.63;62.49;96991.24;1662638;85;21265;-84
2021/04/26 01:46:26;;;;;;;6.10;2.37;;;;;;;-0.64;62.41;96987.03;1663668;84;21164;-84
2021/04/26 01:48:56;;;;;;;4.15;2.33;;;;;;;-0.60;62.14;96990.04;1666528;84;21202;-84
2021/04/26 01:51:24;;;;;;;4.67;2.80;;;;;;;-0.50;61.96;96988.36;1681288;84;21112;-85
2021/04/26 01:53:53;;;;;;;8.55;2.15;;;;;;;-0.47;61.79;96983.55;1647456;86;21172;-85
2021/04/26 01:56:22;;;;;;;4.78;2.10;;;;;;;-0.50;61.69;96978.74;1664226;84;21213;-84
2021/04/26 01:58:52;;;;;;;3.25;1.75;;;;;;;-0.45;61.55;96979.44;1665288;84;21240;-85
2021/04/26 02:01:23;;;;;;;3.42;2.10;;;;;;;-0.53;61.97;96974.44;1671353;84;21308;-85
2021/04/26 02:04:00;;;;;;;3.33;1.70;;;;;;;-0.65;62.57;96975.52;1684960;84;21128;-84
2021/04/26 02:06:29;;;;;;;5.80;2.05;;;;;;;-0.75;62.96;96972.49;1739126;81;21106;-84
2021/04/26 02:08:56;;;;;;;6.20;2.12;;;;;;;-0.84;63.22;96973.70;1731761;80;21555;-84
2021/04/26 02:11:24;;;;;;;4.15;2.08;;;;;;;-0.85;63.19;96974.66;1673906;84;21190;-85
2021/04/26 02:13:53;;;;;;;6.65;1.85;;;;;;;-0.82;63.09;96968.59;1692132;83;21175;-85
2021/04/26 02:16:21;;;;;;;5.35;2.25;;;;;;;-0.79;63.03;96968.19;1680170;84;21148;-84
2021/04/26 02:18:48;;;;;;;3.70;1.80;;;;;;;-0.82;62.92;96964.69;1674500;84;21407;-85
2021/04/26 02:21:15;;;;;;;4.40;1.90;;;;;;;-0.82;63.28;96963.38;1709570;84;21449;-85
2021/04/26 02:23:42;;;;;;;4.20;2.08;;;;;;;-0.83;63.40;96963.58;1700384;84;21552;-85
2021/04/26 02:26:09;;;;;;;6.15;2.30;;;;;;;-0.85;63.86;96965.55;1688120;84;21546;-85
2021/04/26 02:28:36;;;;;;;6.00;2.52;;;;;;;-0.90;63.81;96968.76;1702873;82;21111;-84
2021/04/26 02:31:06;;;;;;;4.67;2.45;;;;;;;-0.90;64.04;96965.66;1703695;84;21167;-84
2021/04/26 02:33:38;;;;;;;8.60;3.20;;;;;;;-0.83;63.72;96964.38;1692846;84;21495;-84
2021/04/26 02:36:20;;;;;;;8.63;3.25;;;;;;;-0.73;63.48;96969.98;1703730;84;21487;-84
2021/04/26 02:38:54;;;;;;;9.45;4.08;;;;;;;-0.63;63.31;96964.41;1733947;80;21535;-85
2021/04/26 02:41:26;;;;;;;6.25;3.65;;;;;;;-0.48;62.85;96960.31;1744721;81;21160;-84
2021/04/26 02:43:58;;;;;;;9.48;4.08;;;;;;;-0.36;62.36;96962.63;1737122;82;21095;-85
2021/04/26 02:46:27;;;;;;;8.25;3.98;;;;;;;-0.24;62.05;96958.92;1741309;81;21399;-84
2021/04/26 02:48:57;;;;;;;9.93;5.10;;;;;;;-0.22;62.11;96957.72;1669894;85;21209;-84
2021/04/26 02:51:31;;;;;;;11.33;4.60;;;;;;;-0.28;62.09;96962.91;1667934;85;21150;-84
2021/04/26 02:53:59;;;;;;;10.05;5.20;;;;;;;-0.31;62.06;96960.21;1663909;85;21194;-85
2021/04/26 02:56:27;;;;;;;9.75;4.60;;;;;;;-0.35;62.28;96961.12;1669746;85;21164;-85
2021/04/26 02:58:58;;;;;;;12.00;4.80;;;;;;;-0.41;62.40;96958.53;1673794;84;21167;-84
2021/04/26 03:01:26;;;;;;;10.25;4.87;;;;;;;-0.38;62.26;96958.92;1669764;85;21117;-84
2021/04/26 03:03:55;;;;;;;9.93;4.30;;;;;;;-0.38;62.16;96954.21;1662264;85;21140;-84
2021/04/26 03:06:24;;;;;;;8.73;4.78;;;;;;;-0.36;61.97;96953.51;1662961;85;21156;-85
2021/04/26 03:08:51;;;;;;;10.43;4.45;;;;;;;-0.35;62.00;96962.42;1665204;84;21601;-84
2021/04/26 03:11:20;;;;;;;10.10;5.50;;;;;;;-0.37;62.01;96955.81;1674055;85;21164;-84
2021/04/26 03:13:47;;;;;;;7.47;3.65;;;;;;;-0.42;62.04;96953.02;1679819;85;21137;-84
2021/04/26 03:16:16;;;;;;;9.30;5.10;;;;;;;-0.47;62.19;96958.80;1675647;85;21163;-85
2021/04/26 03:18:44;;;;;;;13.40;5.05;;;;;;;-0.51;62.25;96954.20;1666924;85;21211;-84
2021/04/26 03:21:12;;;;;;;14.07;4.58;;;;;;;-0.53;62.37;96954.41;1660844;85;21199;-84
2021/04/26 03:23:41;;;;;;;7.85;3.72;;;;;;;-0.46;62.26;96954.40;1674171;85;21539;-84
2021/04/26 03:26:10;;;;;;;5.25;3.37;;;;;;;-0.42;62.16;96954.32;1673085;85;21181;-84
2021/04/26 03:28:41;;;;;;;9.33;4.05;;;;;;;-0.34;61.59;96953.61;1676838;84;21545;-84
2021/04/26 03:31:10;;;;;;;9.90;4.75;;;;;;;-0.31;61.72;96949.29;1673472;85;21124;-83
2021/04/26 03:33:39;;;;;;;7.62;3.67;;;;;;;-0.31;61.74;96953.70;1682210;84;21135;-83
2021/04/26 03:36:08;;;;;;;16.32;4.87;;;;;;;-0.35;61.85;96957.72;1673614;84;21135;-83
2021/04/26 03:38:38;;;;;;;10.10;4.67;;;;;;;-0.34;61.79;96959.31;1678912;84;21238;-83
2021/04/26 03:41:07;;;;;;;7.47;2.65;;;;;;;-0.31;61.61;96954.50;1689260;84;21128;-83
2021/04/26 03:43:35;;;;;;;10.05;4.53;;;;;;;-0.28;61.29;96954.63;1742407;81;21114;-83
2021/04/26 03:46:03;;;;;;;10.43;4.12;;;;;;;-0.21;61.32;96951.50;1679260;84;21152;-83
2021/04/26 03:48:30;;;;;;;7.58;3.77;;;;;;;-0.16;61.02;96958.20;1705159;83;21156;-83
2021/04/26 03:50:57;;;;;;;7.62;3.77;;;;;;;-0.06;60.98;96961.70;1705855;83;21151;-83
2021/04/26 03:53:24;;;;;;;6.37;3.47;;;;;;;-0.04;60.89;96967.52;1712024;83;21151;-83
2021/04/26 03:55:51;;;;;;;10.25;5.05;;;;;;;-0.01;60.62;96967.11;1702821;83;21147;-83
2021/04/26 03:58:18;;;;;;;9.43;4.08;;;;;;;0.04;60.71;96969.92;1705252;83;21184;-83
2021/04/26 04:00:45;;;;;;;8.70;4.72;;;;;;;0.07;60.72;96968.72;1667617;84;21492;-83
2021/04/26 04:03:14;;;;;;;8.95;4.85;;;;;;;0.11;60.39;96969.91;1668221;85;21468;-83
2021/04/26 04:05:43;;;;;;;12.35;5.67;;;;;;;0.17;60.38;96973.02;1660436;86;21858;-83
2021/04/26 04:08:10;;;;;;;11.03;5.30;;;;;;;0.26;60.27;96981.70;1668232;86;21529;-83
2021/04/26 04:10:37;;;;;;;11.78;5.33;;;;;;;0.38;60.18;96975.87;1676130;84;21140;-83
2021/04/26 04:13:04;;;;;;;13.35;5.75;;;;;;;0.56;60.08;96981.23;1683374;84;21186;-84
2021/04/26 04:15:32;;;;;;;10.32;5.87;;;;;;;0.56;60.08;96981.23;1671208;84;21299;-82
2021/04/26 04:17:59;;;;;;;10.65;5.75;;;;;;;0.64;59.88;96974.49;1678467;84;21169;-83
2021/04/26 04:20:26;;;;;;;8.70;4.40;;;;;;;0.77;59.74;96978.87;1685083;83;21574;-83
2021/04/26 04:22:53;;;;;;;10.03;4.97;;;;;;;0.85;59.53;96982.56;1695599;84;21155;-83
2021/04/26 04:25:20;;;;;;;12.78;5.75;;;;;;;0.98;59.59;96978.55;1701493;84;21200;-83
2021/04/26 04:27:48;;;;;;;12.80;6.90;;;;;;;1.08;59.43;96986.75;1694184;84;21590;-83
2021/04/26 04:30:17;;;;;;;13.78;6.45;;;;;;;1.31;59.13;96994.08;1692089;84;21147;-83
2021/04/26 04:32:44;;;;;;;11.93;6.45;;;;;;;2.37;59.18;96988.80;1693783;84;21164;-83
2021/04/26 04:35:11;;;;;;;14.38;6.08;;;;;;;4.42;58.85;96996.98;1692816;84;21096;-83
2021/04/26 04:37:38;;;;;;;12.05;5.60;;;;;;;6.24;55.56;96996.17;1693757;84;21132;-83
2021/04/26 04:40:07;;;;;;;13.40;6.65;;;;;;;7.53;53.49;96995.67;1687562;84;21256;-83
2021/04/26 04:42:34;;;;;;;12.60;6.03;;;;;;;8.62;52.56;96991.28;1693475;84;21169;-83
2021/04/26 04:45:01;;;;;;;12.20;6.53;;;;;;;9.82;49.90;96991.66;1701539;83;21184;-83
2021/04/26 04:47:29;;;;;;;11.93;6.10;;;;;;;10.63;48.78;96986.88;1689514;84;21149;-83
2021/04/26 04:49:56;;;;;;;11.22;5.60;;;;;;;11.55;47.59;96985.45;1698658;84;21141;-83
2021/04/26 04:52:24;;;;;;;11.63;5.78;;;;;;;12.54;44.60;96987.90;1684118;84;21198;-83
2021/04/26 04:54:51;;;;;;;12.37;6.17;;;;;;;13.08;43.82;96978.23;1688758;84;21147;-83
2021/04/26 04:57:18;;;;;;;9.70;5.60;;;;;;;13.31;41.00;96976.66;1694280;83;21208;-83
2021/04/26 04:59:45;;;;;;;10.75;5.75;;;;;;;12.79;41.72;96980.17;1693377;84;21211;-83
2021/04/26 05:02:12;;;;;;;9.85;5.50;;;;;;;12.42;40.98;96975.52;1690282;84;21122;-83
2021/04/26 05:04:39;;;;;;;12.13;5.33;;;;;;;12.78;42.49;96982.03;1678550;84;21135;-83
2021/04/26 05:07:07;;;;;;;10.88;5.35;;;;;;;14.24;41.57;96980.90;1686584;84;21195;-83
2021/04/26 05:09:35;;;;;;;10.78;5.90;;;;;;;16.00;41.58;96976.88;1700910;83;21173;-83
2021/04/26 05:12:03;;;;;;;11.43;6.20;;;;;;;17.72;39.76;96974.69;1701503;84;21180;-83
2021/04/26 05:14:31;;;;;;;12.65;6.45;;;;;;;18.31;36.65;96983.03;1696496;84;21172;-83
2021/04/26 05:16:58;;;;;;;9.25;4.62;;;;;;;18.31;37.14;96985.72;1692516;84;21161;-83
2021/04/26 05:19:25;;;;;;;13.18;6.65;;;;;;;18.05;33.80;96988.43;1693800;83;21154;-83
2021/04/26 05:21:53;;;;;;;13.83;6.60;;;;;;;16.09;34.06;96987.64;1699313;84;21163;-83
2021/04/26 05:24:20;;;;;;;11.43;6.60;;;;;;;14.15;34.97;96990.63;1709627;84;22274;-83
2021/04/26 05:26:47;;;;;;;13.25;6.70;;;;;;;15.94;35.97;96989.58;1709538;84;21189;-83
2021/04/26 05:29:14;;;;;;;9.68;5.75;;;;;;;17.18;33.18;96985.63;1709244;82;21166;-83
2021/04/26 05:31:40;;;;;;;11.40;5.90;;;;;;;17.98;34.22;96982.73;1690770;84;21147;-83
2021/04/26 05:34:07;;;;;;;13.50;6.42;;;;;;;18.20;31.84;96988.49;1699190;84;21148;-83
2021/04/26 05:36:34;;;;;;;10.50;6.45;;;;;;;17.44;31.79;96980.30;1707186;84;21483;-83
2021/04/26 05:39:01;;;;;;;10.28;6.00;;;;;;;17.07;29.33;96984.33;1704343;84;21214;-83
2021/04/26 05:41:28;;;;;;;11.33;5.47;;;;;;;17.15;31.18;96987.56;1688759;84;21132;-83
2021/04/26 05:43:56;;;;;;;9.03;5.25;;;;;;;16.26;30.40;96989.09;1687671;84;21135;-83
2021/04/26 05:46:23;;;;;;;9.20;4.30;;;;;;;15.43;29.40;96988.55;1705331;84;21198;-84
2021/04/26 05:48:51;;;;;;;8.80;5.10;;;;;;;16.81;29.19;96980.20;1698353;84;21164;-83
2021/04/26 05:51:18;;;;;;;8.08;4.72;;;;;;;16.00;28.66;96980.88;1693215;84;21162;-83
2021/04/26 05:53:44;;;;;;;8.30;4.47;;;;;;;12.93;29.07;96989.06;1702708;84;21178;-83
2021/04/26 05:56:12;;;;;;;10.03;4.87;;;;;;;10.27;30.57;96987.45;1702748;84;21147;-83
2021/04/26 05:58:39;;;;;;;8.28;4.20;;;;;;;8.72;32.63;96997.13;1704293;84;21138;-83
2021/04/26 06:01:07;;;;;;;10.32;6.30;;;;;;;8.07;33.71;96998.27;1691010;84;21155;-83
2021/04/26 06:03:35;;;;;;;14.13;6.30;;;;;;;9.57;35.92;96995.58;1695285;84;21259;-83
2021/04/26 06:06:03;;;;;;;12.25;6.55;;;;;;;11.89;33.52;96988.70;1692121;84;21205;-83
2021/04/26 06:08:30;;;;;;;8.93;5.03;;;;;;;11.28;32.37;96983.73;1698052;82;21519;-83
2021/04/26 06:10:57;;;;;;;8.53;4.28;;;;;;;9.73;32.58;96989.28;1700278;84;21143;-83
2021/04/26 06:13:25;;;;;;;11.22;5.78;;;;;;;8.29;33.09;96975.17;1707686;84;21181;-83
2021/04/26 06:15:52;;;;;;;7.47;4.20;;;;;;;9.26;35.01;96976.98;1700398;84;21163;-83
2021/04/26 06:18:24;;;;;;;8.63;4.33;;;;;;;11.84;34.97;96970.16;1699509;84;21179;-83
2021/04/26 06:20:54;;;;;;;9.18;4.22;;;;;;;15.34;34.39;96963.61;1702760;84;21160;-84
2021/04/26 06:23:22;;;;;;;5.17;3.35;;;;;;;17.45;25.31;96955.62;1698038;84;21203;-84
2021/04/26 06:25:49;;;;;;;7.83;3.00;;;;;;;16.65;24.94;96953.58;1697963;84;21144;-83
2021/04/26 06:28:17;;;;;;;6.25;3.15;;;;;;;15.72;24.50;96944.11;1695714;84;21229;-84
2021/04/26 06:30:47;;;;;;;5.42;3.08;;;;;;;15.43;26.57;96945.25;1705266;84;21137;-83
2021/04/26 06:33:16;;;;;;;5.55;3.02;;;;;;;16.27;24.70;96945.19;1698944;84;21143;-83
2021/04/26 06:35:50;;;;;;;4.53;3.12;;;;;;;17.56;25.93;96944.84;1703894;84;21180;-84
2021/04/26 06:38:19;;;;;;;4.30;2.83;;;;;;;18.97;26.54;96946.65;1702139;84;21129;-84
2021/04/26 06:40:47;;;;;;;4.25;2.62;;;;;;;20.57;25.17;96936.95;1700677;83;21138;-83
2021/04/26 06:43:16;;;;;;;5.17;2.90;;;;;;;20.18;24.38;96939.63;1697367;84;21182;-83
2021/04/26 06:45:45;;;;;;;4.67;2.75;;;;;;;18.62;25.07;96943.86;1709487;84;21131;-83
2021/04/26 06:48:16;;;;;;;2.98;1.95;;;;;;;17.16;25.24;96947.61;1696562;84;21509;-83
2021/04/26 06:50:45;;;;;;;3.50;1.98;;;;;;;18.77;23.64;96944.70;1699268;84;21539;-84
2021/04/26 06:53:14;;;;;;;5.03;2.60;;;;;;;18.42;20.49;96941.30;1696775;84;21223;-83
2021/04/26 06:55:41;;;;;;;6.28;2.72;;;;;;;17.15;19.94;96941.23;1682117;84;21142;-83
2021/04/26 06:58:08;;;;;;;3.90;2.30;;;;;;;17.28;23.01;96941.66;1688704;84;21224;-84
2021/04/26 07:00:35;;;;;;;3.47;2.00;;;;;;;18.56;21.91;96943.23;1709372;84;21119;-84
2021/04/26 07:03:03;;;;;;;4.55;2.58;;;;;;;20.20;23.63;96939.30;1709699;84;21188;-84
2021/04/26 07:05:31;;;;;;;4.10;2.50;;;;;;;22.10;21.77;96946.22;1694685;84;21124;-84
2021/04/26 07:07:58;;;;;;;3.00;2.10;;;;;;;22.98;21.85;96940.98;1695890;84;21542;-84
2021/04/26 07:10:25;;;;;;;4.45;2.25;;;;;;;23.79;18.95;96938.56;1695254;84;21184;-84
2021/04/26 07:12:53;;;;;;;3.02;2.25;;;;;;;23.57;20.93;96938.67;1709725;84;21155;-84
2021/04/26 07:15:20;;;;;;;5.33;2.83;;;;;;;24.21;20.68;96941.32;1690712;84;21180;-84
2021/04/26 07:17:47;;;;;;;5.67;3.40;;;;;;;24.31;17.59;96944.02;1706107;84;21176;-84
2021/04/26 07:20:15;;;;;;;5.92;3.40;;;;;;;22.87;18.62;96949.98;1694827;84;21219;-84
2021/04/26 07:22:43;;;;;;;4.58;3.22;;;;;;;23.17;20.15;96942.18;1687419;84;21141;-84
2021/04/26 07:25:12;;;;;;;5.65;3.22;;;;;;;21.81;18.16;96944.05;1678057;84;21112;-83
2021/04/26 07:27:39;;;;;;;7.10;3.20;;;;;;;19.55;20.27;96941.58;1682515;84;21146;-83
2021/04/26 07:30:09;;;;;;;4.45;3.10;;;;;;;17.38;20.55;96949.95;1701246;83;21148;-83
2021/04/26 07:32:37;;;;;;;6.05;3.27;;;;;;;16.22;23.01;96953.36;1700357;84;21505;-83
2021/04/26 07:35:07;;;;;;;6.90;3.52;;;;;;;17.06;22.12;96947.92;1698945;84;21523;-83
2021/04/26 07:37:34;;;;;;;6.33;3.95;;;;;;;14.96;22.20;96949.73;1697384;84;21159;-83
2021/04/26 07:40:01;;;;;;;8.08;4.42;;;;;;;13.81;24.75;96966.38;1689480;84;21135;-83
2021/04/26 07:42:28;;;;;;;5.95;3.55;;;;;;;16.60;24.57;96929.05;1701675;84;21130;-84
2021/04/26 07:44:55;;;;;;;8.33;4.47;;;;;;;16.60;24.57;96929.05;1701588;84;21132;-84
2021/04/26 07:47:22;;;;;;;6.70;3.90;;;;;;;16.11;23.24;96948.80;1701730;84;21116;-84
2021/04/26 07:49:50;;;;;;;4.47;3.00;;;;;;;18.27;24.13;96956.02;1697686;83;21215;-84
2021/04/26 07:52:17;;;;;;;5.08;3.47;;;;;;;20.68;23.49;96950.19;1701524;84;21554;-84
2021/04/26 07:54:44;;;;;;;4.15;2.98;;;;;;;21.55;22.08;96945.05;1696326;84;21497;-84
2021/04/26 07:57:11;;;;;;;4.58;2.67;;;;;;;21.03;18.59;96942.48;1695756;84;21159;-84
2021/04/26 07:59:39;;;;;;;6.05;3.45;;;;;;;19.26;20.36;96934.31;1690673;84;21496;-83
2021/04/26 08:02:06;;;;;;;5.95;3.85;;;;;;;15.91;21.18;96947.97;1695620;84;21497;-84
2021/04/26 08:04:33;;;;;;;7.22;3.58;;;;;;;13.88;23.62;96948.67;1689723;83;21134;-83
2021/04/26 08:07:00;;;;;;;6.15;3.45;;;;;;;13.50;25.17;96955.35;1695663;84;21471;-82
2021/04/26 08:09:27;;;;;;;7.60;3.67;;;;;;;13.07;25.32;96951.36;1696070;83;21172;-83
2021/04/26 08:11:54;;;;;;;6.08;3.30;;;;;;;12.20;26.09;96956.03;1689547;84;21488;-83
2021/04/26 08:14:22;;;;;;;5.53;3.40;;;;;;;12.29;26.33;96955.69;1699887;84;21564;-83
2021/04/26 08:16:49;;;;;;;6.35;3.98;;;;;;;10.60;27.33;96966.20;1692314;84;21166;-83
2021/04/26 08:19:16;;;;;;;6.28;3.52;;;;;;;11.01;28.13;96957.59;1694483;83;21199;-83
2021/04/26 08:21:45;;;;;;;6.65;3.33;;;;;;;13.28;27.83;96963.12;1678742;84;21475;-84
2021/04/26 08:24:13;;;;;;;4.37;2.58;;;;;;;14.20;27.67;96955.33;1698590;84;21175;-83
2021/04/26 08:26:40;;;;;;;4.65;2.55;;;;;;;16.19;26.09;96944.61;1698664;84;21174;-83
2021/04/26 08:29:08;;;;;;;4.90;2.55;;;;;;;15.61;25.88;96952.11;1696538;84;21135;-83
2021/04/26 08:31:36;;;;;;;5.50;2.77;;;;;;;14.30;25.94;96957.05;1696839;84;21179;-83
2021/04/26 08:34:03;;;;;;;4.33;2.50;;;;;;;13.25;26.23;96958.38;1700479;84;21139;-83
2021/04/26 08:36:31;;;;;;;4.65;2.37;;;;;;;12.54;26.57;96946.67;1672633;84;21514;-83
2021/04/26 08:38:59;;;;;;;4.50;2.55;;;;;;;11.65;27.50;96955.89;1707747;81;21222;-83
2021/04/26 08:41:27;;;;;;;5.35;2.87;;;;;;;11.40;28.06;96956.84;1701803;84;21139;-83
2021/04/26 08:43:54;;;;;;;3.77;2.30;;;;;;;13.13;26.91;96945.99;1700318;83;21131;-84
2021/04/26 08:46:21;;;;;;;6.72;2.90;;;;;;;13.03;27.34;96944.24;1709559;84;21491;-83
2021/04/26 08:48:49;;;;;;;5.85;3.00;;;;;;;11.87;27.13;96951.79;1703678;83;21154;-83
2021/04/26 08:51:16;;;;;;;7.10;2.90;;;;;;;10.62;28.06;96957.45;1704942;83;21514;-83
2021/04/26 08:53:43;;;;;;;3.33;2.12;;;;;;;9.61;29.27;96959.61;1719125;83;21147;-83
2021/04/26 08:56:11;;;;;;;5.35;2.50;;;;;;;9.16;30.06;96969.05;1717799;83;21170;-83
2021/04/26 08:58:38;;;;;;;6.70;3.25;;;;;;;9.50;30.71;96962.23;1709459;82;21103;-83
2021/04/26 09:01:05;;;;;;;5.53;2.72;;;;;;;9.69;30.69;96961.72;1736761;81;21458;-83
2021/04/26 09:03:37;;;;;;;5.92;3.25;;;;;;;9.51;31.04;96956.41;1739306;81;21115;-83
2021/04/26 09:06:07;;;;;;;6.60;2.52;;;;;;;9.06;31.08;96966.36;1727636;81;21499;-83
2021/04/26 09:08:34;;;;;;;5.87;2.87;;;;;;;8.74;32.19;96958.56;1742668;80;21275;-82
2021/04/26 09:11:05;;;;;;;4.50;2.30;;;;;;;8.52;32.04;96956.06;1733708;81;21095;-83
2021/04/26 09:13:42;;;;;;;7.00;3.33;;;;;;;9.49;32.19;96964.62;1732792;82;21150;-83
2021/04/26 09:16:20;;;;;;;6.80;3.33;;;;;;;9.08;31.78;96959.75;1733207;81;21180;-83
2021/04/26 09:18:51;;;;;;;7.58;3.70;;;;;;;8.76;32.05;96954.61;1737111;81;21156;-83
2021/04/26 09:21:33;;;;;;;7.80;3.60;;;;;;;8.25;32.81;96953.49;1729356;81;21531;-83
2021/04/26 09:24:28;;;;;;;6.37;3.42;;;;;;;8.32;32.57;96952.23;1744248;81;21128;-84
2021/04/26 09:27:09;;;;;;;7.25;3.95;;;;;;;7.96;33.87;96964.91;1726299;81;21107;-83
2021/04/26 09:29:39;;;;;;;8.53;3.75;;;;;;;7.91;34.19;96954.31;1709758;83;21104;-83
2021/04/26 09:32:13;;;;;;;7.03;3.85;;;;;;;7.98;34.13;96950.92;1667789;84;21143;-84
2021/04/26 09:34:48;;;;;;;6.45;3.40;;;;;;;8.41;36.20;96941.99;1671858;84;21487;-84
2021/04/26 09:37:23;;;;;;;7.42;3.50;;;;;;;9.03;35.29;96953.13;1687643;84;21131;-83
2021/04/26 09:40:11;;;;;;;6.78;3.25;;;;;;;8.30;33.66;96950.38;1678630;84;21149;-83
2021/04/26 09:42:52;;;;;;;6.12;3.22;;;;;;;7.85;34.00;96957.95;1688958;84;21160;-84
2021/04/26 09:45:36;;;;;;;6.28;3.35;;;;;;;7.69;34.40;96947.27;1681932;84;21138;-84
2021/04/26 09:48:19;;;;;;;5.15;2.92;;;;;;;7.50;34.65;96943.41;1676010;84;21186;-83
2021/04/26 09:51:17;;;;;;;6.00;3.35;;;;;;;7.24;34.61;96946.31;1684233;84;21196;-84
2021/04/26 09:53:54;;;;;;;8.30;3.27;;;;;;;7.07;34.81;96945.61;1674082;85;21203;-84
2021/04/26 09:56:31;;;;;;;5.47;2.98;;;;;;;7.26;35.04;96940.80;1680036;84;21193;-84
2021/04/26 09:59:02;;;;;;;6.10;3.10;;;;;;;7.78;35.35;96941.02;1737749;81;21189;-84
2021/04/26 10:01:32;;;;;;;6.75;3.58;;;;;;;8.44;35.51;96933.55;1742523;81;21143;-84
2021/04/26 10:04:02;;;;;;;8.03;4.20;;;;;;;8.72;34.39;96935.53;1738938;81;21195;-84
2021/04/26 10:06:29;;;;;;;7.75;3.60;;;;;;;8.41;33.85;96947.80;1666332;86;21139;-83
2021/04/26 10:08:59;;;;;;;7.08;3.80;;;;;;;7.79;33.91;96945.77;1657022;86;21936;-84
2021/04/26 10:11:30;;;;;;;8.23;3.83;;;;;;;7.56;34.38;96938.44;1672055;86;21157;-83
2021/04/26 10:14:12;;;;;;;8.53;3.30;;;;;;;7.60;34.71;96941.36;1686041;85;21163;-84
2021/04/26 10:17:05;;;;;;;7.78;3.60;;;;;;;7.85;34.96;96926.27;1680864;84;21183;-84
2021/04/26 10:19:49;;;;;;;7.67;4.03;;;;;;;8.07;35.72;96919.58;1685774;84;21635;-84
2021/04/26 10:22:36;;;;;;;5.45;2.72;;;;;;;8.78;35.64;96917.34;1693649;84;21591;-83
2021/04/26 10:25:05;;;;;;;6.05;3.42;;;;;;;9.01;32.49;96914.75;1678885;85;21131;-83
2021/04/26 10:27:37;;;;;;;8.43;3.83;;;;;;;8.22;33.22;96915.71;1678927;85;21165;-84
2021/04/26 10:30:12;;;;;;;6.65;3.45;;;;;;;7.85;33.49;96909.11;1681838;84;21464;-84
2021/04/26 10:33:02;;;;;;;5.33;3.10;;;;;;;8.00;34.21;96909.22;1677663;84;21242;-84
2021/04/26 10:35:44;;;;;;;;;;;;;;;8.40;35.81;96906.59;1672526;85;21654;-84
2021/04/26 10:38:46;;;;;;;8.53;4.03;;;;;;;9.00;34.85;96914.48;1674994;84;20136;-84
2021/04/26 10:41:19;;;;;;;8.07;4.03;;;;;;;8.99;34.67;96897.03;1660226;85;21295;-84
2021/04/26 10:44:06;;;;;;;6.78;3.85;;;;;;;9.44;35.07;96901.11;1859470;76;23409;-83
2021/04/26 10:46:33;;;;;;;9.38;4.12;;;;;;;9.29;33.85;96903.73;1839933;77;21087;-83
2021/04/26 10:49:12;;;;;;;9.88;4.55;;;;;;;8.87;33.80;96899.41;1819188;77;21451;-83
2021/04/26 10:51:39;;;;;;;8.25;4.10;;;;;;;8.77;35.01;96899.36;1791464;80;21112;-83
2021/04/26 10:54:07;;;;;;;8.20;3.47;;;;;;;8.72;34.64;96892.72;1771988;80;21177;-84
2021/04/26 10:56:35;;;;;;;7.40;3.55;;;;;;;8.45;34.30;96896.86;1766134;80;21617;-83
2021/04/26 10:59:22;;;;;;;6.20;3.90;;;;;;;8.54;34.41;96891.33;1766678;80;21219;-83
2021/04/26 11:01:52;;;;;;;6.30;3.75;;;;;;;8.92;34.96;96885.40;1790003;80;21131;-84
2021/04/26 11:04:20;;;;;;;7.67;3.98;;;;;;;9.57;35.56;96887.89;1777395;80;21194;-84
2021/04/26 11:07:04;;;;;;;6.00;3.52;;;;;;;9.79;34.99;96863.77;1778225;80;21091;-84
2021/04/26 11:09:36;;;;;;;10.75;4.55;;;;;;;9.78;33.95;96880.19;1788114;80;21487;-84
2021/04/26 11:12:06;;;;;;;6.92;3.40;;;;;;;8.93;33.34;96873.23;1786881;80;21119;-83
2021/04/26 11:14:33;;;;;;;7.97;4.17;;;;;;;8.58;33.91;96867.82;1763608;80;21127;-83
2021/04/26 11:17:05;;;;;;;7.12;3.50;;;;;;;8.61;34.38;96870.77;1781236;79;21083;-84
2021/04/26 11:19:36;;;;;;;7.40;3.95;;;;;;;8.65;34.30;96869.71;1790962;79;21656;-84
2021/04/26 11:22:05;;;;;;;9.13;4.47;;;;;;;9.17;35.16;96859.54;1768390;80;21190;-83
2021/04/26 11:24:51;;;;;;;7.60;3.95;;;;;;;9.60;34.30;96848.97;1797961;79;21261;-83
2021/04/26 11:27:20;;;;;;;6.80;3.85;;;;;;;9.70;33.82;96852.13;1777552;79;21269;-84
2021/04/26 11:29:54;;;;;;;7.62;3.92;;;;;;;9.63;33.38;96853.73;1778094;80;21516;-83
2021/04/26 11:32:27;;;;;;;5.50;3.10;;;;;;;9.50;33.39;96862.99;1782138;79;21234;-83
2021/04/26 11:35:00;;;;;;;5.92;3.22;;;;;;;9.10;32.48;96854.48;1769240;79;21112;-83
2021/04/26 11:37:31;;;;;;;8.30;3.22;;;;;;;8.44;33.34;96854.29;1793635;79;21123;-83
2021/04/26 11:39:58;;;;;;;4.62;2.67;;;;;;;8.33;33.99;96853.97;1770290;79;21119;-83
2021/04/26 11:42:31;;;;;;;7.85;3.30;;;;;;;8.50;34.41;96854.59;1796015;80;21138;-83
2021/04/26 11:45:01;;;;;;;7.55;3.98;;;;;;;8.75;33.81;96843.85;1797158;79;21105;-83
2021/04/26 11:47:28;;;;;;;6.87;3.63;;;;;;;8.93;33.85;96835.42;1780634;79;21104;-83
2021/04/26 11:50:01;;;;;;;6.75;3.77;;;;;;;9.30;35.51;96829.92;1778130;79;21155;-84